createdAt,value
2018-04-07T00:00:46.889Z,81.20
2018-04-07T00:03:14.336Z,80.80
2018-04-07T00:05:42.543Z,80.90
2018-04-07T00:08:09.983Z,80.90
2018-04-07T00:10:37.435Z,81.10
2018-04-07T00:13:04.912Z,81.50
2018-04-07T00:15:32.368Z,81.40
2018-04-07T00:17:59.799Z,81.80
2018-04-07T00:20:28.004Z,82.20
2018-04-07T00:22:55.452Z,82.20
2018-04-07T00:25:22.907Z,82.40
2018-04-07T00:27:50.358Z,82.90
2018-04-07T00:30:17.810Z,82.90
2018-04-07T00:32:45.256Z,83.10
2018-04-07T00:35:13.463Z,83.20
2018-04-07T00:37:40.900Z,83.20
2018-04-07T00:40:08.355Z,83.20
2018-04-07T00:42:35.804Z,83.30
2018-04-07T00:45:04.044Z,83.60
2018-04-07T00:47:31.484Z,83.50
2018-04-07T00:49:58.915Z,83.70
2018-04-07T00:52:26.360Z,84.20
2018-04-07T00:54:53.808Z,84.40
2018-04-07T00:57:21.266Z,84.20
2018-04-07T00:59:49.472Z,84.40
2018-04-07T01:02:16.916Z,84.40
2018-04-07T01:04:44.353Z,85.90
2018-04-07T01:07:12.564Z,85.60
2018-04-07T01:09:39.995Z,85.50
2018-04-07T01:12:07.451Z,85.50
2018-04-07T01:14:34.897Z,85.70
2018-04-07T01:17:02.380Z,86.00
2018-04-07T01:19:29.793Z,85.80
2018-04-07T01:21:57.269Z,86.10
2018-04-07T01:24:25.496Z,87.20
2018-04-07T01:26:52.940Z,86.40
2018-04-07T01:29:20.396Z,86.70
2018-04-07T01:31:47.869Z,86.70
2018-04-07T01:34:15.306Z,86.40
2018-04-07T01:36:42.748Z,86.60
2018-04-07T01:39:10.208Z,86.90
2018-04-07T01:41:37.644Z,87.00
2018-04-07T01:44:05.107Z,87.40
2018-04-07T01:46:32.547Z,87.70
2018-04-07T01:49:00.774Z,88.40
2018-04-07T01:51:28.211Z,88.40
2018-04-07T01:53:55.663Z,87.30
2018-04-07T01:56:23.107Z,88.10
2018-04-07T01:58:50.563Z,88.30
2018-04-07T02:01:18.019Z,89.10
2018-04-07T02:03:46.227Z,89.00
2018-04-07T02:06:13.689Z,89.00
2018-04-07T02:08:41.147Z,89.30
2018-04-07T02:11:08.588Z,89.90
2018-04-07T02:13:36.034Z,90.00
2018-04-07T02:16:03.495Z,90.20
2018-04-07T02:18:30.936Z,90.70
2018-04-07T02:20:59.148Z,90.70
2018-04-07T02:23:26.596Z,90.70
2018-04-07T02:25:54.052Z,90.80
2018-04-07T02:28:21.496Z,90.90
2018-04-07T02:30:48.952Z,90.90
2018-04-07T02:33:16.399Z,91.00
2018-04-07T02:35:44.608Z,90.60
2018-04-07T02:38:12.056Z,90.60
2018-04-07T02:40:39.510Z,90.60
2018-04-07T02:43:06.956Z,90.90
2018-04-07T02:45:34.412Z,90.80
2018-04-07T02:48:01.859Z,90.90
2018-04-07T02:50:29.316Z,90.80
2018-04-07T02:52:56.760Z,91.00
2018-04-07T02:55:24.983Z,91.00
2018-04-07T02:57:52.440Z,91.00
2018-04-07T03:00:19.896Z,90.80
2018-04-07T03:02:47.368Z,91.10
2018-04-07T03:05:14.826Z,91.00
2018-04-07T03:07:42.256Z,90.60
2018-04-07T03:10:09.716Z,90.80
2018-04-07T03:12:37.155Z,90.50
2018-04-07T03:15:04.615Z,91.20
2018-04-07T03:17:32.064Z,91.40
2018-04-07T03:19:59.521Z,91.40
2018-04-07T03:22:26.964Z,92.00
2018-04-07T03:24:55.171Z,92.60
2018-04-07T03:27:22.623Z,92.50
2018-04-07T03:29:50.079Z,93.00
2018-04-07T03:32:17.525Z,92.80
2018-04-07T03:34:44.977Z,92.90
2018-04-07T03:37:13.213Z,93.30
2018-04-07T03:39:41.435Z,93.70
2018-04-07T03:42:08.863Z,93.70
2018-04-07T03:44:36.303Z,94.10
2018-04-07T03:47:03.756Z,94.10
2018-04-07T03:49:31.212Z,93.60
2018-04-07T03:51:58.668Z,93.00
2018-04-07T03:54:26.131Z,92.70
2018-04-07T03:56:53.551Z,91.60
2018-04-07T03:59:20.999Z,92.20
2018-04-07T04:01:48.455Z,93.60
2018-04-07T04:04:15.904Z,93.60
2018-04-07T04:06:44.117Z,94.40
2018-04-07T04:09:11.579Z,94.40
2018-04-07T04:11:39.051Z,93.50
2018-04-07T04:14:06.504Z,93.00
2018-04-07T04:16:33.939Z,92.80
2018-04-07T04:19:01.384Z,92.40
2018-04-07T04:21:28.856Z,91.70
2018-04-07T04:23:56.300Z,92.60
2018-04-07T04:26:23.762Z,92.90
2018-04-07T04:28:51.207Z,92.50
2018-04-07T04:31:18.664Z,92.00
2018-04-07T04:33:46.105Z,91.70
2018-04-07T04:36:13.564Z,92.60
2018-04-07T04:38:41.019Z,92.40
2018-04-07T04:41:09.239Z,93.20
2018-04-07T04:43:36.676Z,93.20
2018-04-07T04:46:04.129Z,93.30
2018-04-07T04:48:31.579Z,93.10
2018-04-07T04:50:59.034Z,92.10
2018-04-07T04:53:26.479Z,94.30
2018-04-07T04:55:53.934Z,94.00
2018-04-07T04:58:22.167Z,95.00
2018-04-07T05:00:49.609Z,95.00
2018-04-07T05:03:17.047Z,95.70
2018-04-07T05:05:44.495Z,95.30
2018-04-07T05:08:11.938Z,94.00
2018-04-07T05:10:39.399Z,94.00
2018-04-07T05:13:06.861Z,92.20
2018-04-07T05:15:34.312Z,93.20
2018-04-07T05:18:01.771Z,93.00
2018-04-07T05:20:29.226Z,91.80
2018-04-07T05:22:56.662Z,90.80
2018-04-07T05:25:24.901Z,94.80
2018-04-07T05:27:52.353Z,94.80
2018-04-07T05:30:19.808Z,96.30
2018-04-07T05:32:47.268Z,96.80
2018-04-07T05:35:14.711Z,96.80
2018-04-07T05:37:42.155Z,96.90
2018-04-07T05:40:09.615Z,97.00
2018-04-07T05:42:37.060Z,97.00
2018-04-07T05:45:04.518Z,96.70
2018-04-07T05:47:31.975Z,96.30
2018-04-07T05:49:59.430Z,96.10
2018-04-07T05:52:26.875Z,95.60
2018-04-07T05:54:54.310Z,95.10
2018-04-07T05:57:21.771Z,94.50
2018-04-07T05:59:49.207Z,94.00
2018-04-07T06:02:16.654Z,92.90
2018-04-07T06:04:44.107Z,92.80
2018-04-07T06:07:11.595Z,92.60
2018-04-07T06:09:39.044Z,91.80
2018-04-07T06:12:06.495Z,91.10
2018-04-07T06:14:33.928Z,90.80
2018-04-07T06:17:01.386Z,90.20
2018-04-07T06:19:28.831Z,89.50
2018-04-07T06:21:56.293Z,88.80
2018-04-07T06:24:23.744Z,87.30
2018-04-07T06:26:51.200Z,85.90
2018-04-07T06:29:18.647Z,85.60
2018-04-07T06:31:46.108Z,85.70
2018-04-07T06:34:13.547Z,83.80
2018-04-07T06:36:41.793Z,82.50
2018-04-07T06:39:09.232Z,83.60
2018-04-07T06:41:36.712Z,81.80
2018-04-07T06:44:04.168Z,78.50
2018-04-07T06:46:31.621Z,77.60
2018-04-07T06:48:59.059Z,77.20
2018-04-07T06:51:26.516Z,77.80
2018-04-07T06:53:53.959Z,76.70
2018-04-07T06:56:21.419Z,75.30
2018-04-07T06:58:48.880Z,76.30
2018-04-07T07:01:16.331Z,74.60
2018-04-07T07:03:43.791Z,74.30
2018-04-07T07:06:11.244Z,75.40
2018-04-07T07:08:38.696Z,72.70
2018-04-07T07:11:06.153Z,73.40
2018-04-07T07:13:33.589Z,73.30
2018-04-07T07:16:01.835Z,69.00
2018-04-07T07:18:29.259Z,68.70
2018-04-07T07:20:56.715Z,68.10
2018-04-07T07:23:24.162Z,68.70
2018-04-07T07:25:51.613Z,68.00
2018-04-07T07:28:19.055Z,66.40
2018-04-07T07:30:46.538Z,63.90
2018-04-07T07:33:14.008Z,62.70
2018-04-07T07:35:41.478Z,64.40
2018-04-07T07:38:08.919Z,63.10
2018-04-07T07:40:36.375Z,64.00
2018-04-07T07:43:03.839Z,59.50
2018-04-07T07:45:31.299Z,60.70
2018-04-07T07:47:58.748Z,58.70
2018-04-07T07:50:26.207Z,57.40
2018-04-07T07:52:53.682Z,58.20
2018-04-07T07:55:21.160Z,56.00
2018-04-07T07:57:49.399Z,56.00
2018-04-07T08:00:16.856Z,56.00
2018-04-07T08:02:44.299Z,53.80
2018-04-07T08:05:11.747Z,54.80
2018-04-07T08:07:39.212Z,53.90
2018-04-07T08:10:06.683Z,53.20
2018-04-07T08:12:34.123Z,51.60
2018-04-07T08:15:01.580Z,52.20
2018-04-07T08:17:29.036Z,52.60
2018-04-07T08:19:56.500Z,48.70
2018-04-07T08:22:23.960Z,49.30
2018-04-07T08:24:51.412Z,46.70
2018-04-07T08:27:18.860Z,47.50
2018-04-07T08:29:46.314Z,46.70
2018-04-07T08:32:13.809Z,47.80
2018-04-07T08:34:41.231Z,46.70
2018-04-07T08:37:08.691Z,45.00
2018-04-07T08:39:36.167Z,43.80
2018-04-07T08:42:03.599Z,43.20
2018-04-07T08:44:31.063Z,41.20
2018-04-07T08:46:58.520Z,42.40
2018-04-07T08:49:25.972Z,40.90
2018-04-07T08:51:53.452Z,41.40
2018-04-07T08:54:20.904Z,42.90
2018-04-07T08:56:48.396Z,42.10
2018-04-07T08:59:15.823Z,42.60
2018-04-07T09:01:43.307Z,43.00
2018-04-07T09:04:10.743Z,44.00
2018-04-07T09:06:38.203Z,44.10
2018-04-07T09:09:05.663Z,42.40
2018-04-07T09:11:33.120Z,39.50
2018-04-07T09:14:00.600Z,40.10
2018-04-07T09:16:28.056Z,38.20
2018-04-07T09:18:55.522Z,40.60
2018-04-07T09:21:22.978Z,41.90
2018-04-07T09:23:50.426Z,43.50
2018-04-07T09:26:17.871Z,43.20
2018-04-07T09:28:45.339Z,41.60
2018-04-07T09:31:18.582Z,39.80
2018-04-07T09:33:46.037Z,38.90
2018-04-07T09:36:13.491Z,38.00
2018-04-07T09:38:40.952Z,38.40
2018-04-07T09:41:08.409Z,37.20
2018-04-07T09:43:35.860Z,36.00
2018-04-07T09:46:03.284Z,35.50
2018-04-07T09:48:31.507Z,39.80
2018-04-07T09:50:58.974Z,39.70
2018-04-07T09:53:26.414Z,38.70
2018-04-07T09:55:53.865Z,37.40
2018-04-07T09:58:21.324Z,36.80
2018-04-07T10:00:48.787Z,37.10
2018-04-07T10:03:21.798Z,37.80
2018-04-07T10:05:49.339Z,37.80
2018-04-07T10:08:16.807Z,38.10
2018-04-07T10:10:44.261Z,35.60
2018-04-07T10:13:11.721Z,33.70
2018-04-07T10:15:39.171Z,35.20
2018-04-07T10:18:06.623Z,35.20
2018-04-07T10:20:34.076Z,34.60
2018-04-07T10:23:01.530Z,34.90
2018-04-07T10:25:28.987Z,32.90
2018-04-07T10:27:56.447Z,30.60
2018-04-07T10:30:23.900Z,33.00
2018-04-07T10:32:51.358Z,32.70
2018-04-07T10:35:18.818Z,33.00
2018-04-07T10:37:46.273Z,32.10
2018-04-07T10:40:13.760Z,33.40
2018-04-07T10:42:41.207Z,32.50
2018-04-07T10:45:08.655Z,32.10
2018-04-07T10:47:36.099Z,29.20
2018-04-07T10:50:03.559Z,26.90
2018-04-07T10:52:31.016Z,27.50
2018-04-07T10:54:58.475Z,28.80
2018-04-07T10:57:25.920Z,26.00
2018-04-07T10:59:53.427Z,24.00
2018-04-07T11:02:20.903Z,25.00
2018-04-07T11:04:48.353Z,22.60
2018-04-07T11:07:15.796Z,21.50
2018-04-07T11:09:43.252Z,22.30
2018-04-07T11:12:10.696Z,20.50
2018-04-07T11:14:38.167Z,19.40
2018-04-07T11:17:05.613Z,19.80
2018-04-07T11:19:33.059Z,17.90
2018-04-07T11:22:00.519Z,18.50
2018-04-07T11:24:27.963Z,17.40
2018-04-07T11:26:55.416Z,15.70
2018-04-07T11:29:22.876Z,15.70
2018-04-07T11:31:50.331Z,17.70
2018-04-07T11:34:17.791Z,19.80
2018-04-07T11:36:45.245Z,16.90
2018-04-07T11:39:12.680Z,15.30
2018-04-07T11:41:40.899Z,16.60
2018-04-07T11:44:08.355Z,16.50
2018-04-07T11:46:35.828Z,15.40
2018-04-07T11:49:03.275Z,16.50
2018-04-07T11:51:30.726Z,16.10
2018-04-07T11:53:58.931Z,15.20
2018-04-07T11:56:26.370Z,15.20
2018-04-07T11:58:53.819Z,15.50
2018-04-07T12:01:21.266Z,15.70
2018-04-07T12:03:48.723Z,16.10
2018-04-07T12:06:16.167Z,15.90
2018-04-07T12:08:43.625Z,14.20
2018-04-07T12:11:11.084Z,13.60
2018-04-07T12:13:38.539Z,14.10
2018-04-07T12:16:05.997Z,14.10
2018-04-07T12:18:34.449Z,13.70
2018-04-07T12:21:02.663Z,15.20
2018-04-07T12:23:30.123Z,15.20
2018-04-07T12:25:57.588Z,15.20
2018-04-07T12:28:25.047Z,17.30
2018-04-07T12:30:52.484Z,15.90
2018-04-07T12:33:19.943Z,15.70
2018-04-07T12:35:47.395Z,15.20
2018-04-07T12:38:14.852Z,14.30
2018-04-07T12:40:42.332Z,14.10
2018-04-07T12:43:09.765Z,15.70
2018-04-07T12:45:37.199Z,14.60
2018-04-07T12:48:05.415Z,14.40
2018-04-07T12:50:32.867Z,14.40
2018-04-07T12:53:00.323Z,14.50
2018-04-07T12:55:27.775Z,14.90
2018-04-07T12:57:55.228Z,16.20
2018-04-07T13:00:22.668Z,15.70
2018-04-07T13:02:50.125Z,15.90
2018-04-07T13:05:17.571Z,15.60
2018-04-07T13:07:45.787Z,17.10
2018-04-07T13:10:13.226Z,17.10
2018-04-07T13:12:40.669Z,16.80
2018-04-07T13:15:08.119Z,17.70
2018-04-07T13:17:36.340Z,17.70
2018-04-07T13:20:03.800Z,17.60
2018-04-07T13:22:31.259Z,20.50
2018-04-07T13:24:58.718Z,19.10
2018-04-07T13:27:26.217Z,18.20
2018-04-07T13:29:53.605Z,19.00
2018-04-07T13:32:21.064Z,20.80
2018-04-07T13:34:48.504Z,20.80
2018-04-07T13:37:15.985Z,19.70
2018-04-07T13:39:43.435Z,19.50
2018-04-07T13:42:10.894Z,19.60
2018-04-07T13:44:38.335Z,18.60
2018-04-07T13:47:05.790Z,19.10
2018-04-07T13:49:33.224Z,18.40
2018-04-07T13:52:01.452Z,18.70
2018-04-07T13:54:28.896Z,18.70
2018-04-07T13:56:56.353Z,20.90
2018-04-07T13:59:23.806Z,21.00
2018-04-07T14:01:51.250Z,21.70
2018-04-07T14:04:18.707Z,20.90
2018-04-07T14:06:46.140Z,20.10
2018-04-07T14:09:14.361Z,19.50
2018-04-07T14:11:41.810Z,19.40
2018-04-07T14:14:09.251Z,25.80
2018-04-07T14:16:36.699Z,30.00
2018-04-07T14:19:04.923Z,29.90
2018-04-07T14:21:32.364Z,30.00
2018-04-07T14:23:59.819Z,28.90
2018-04-07T14:26:27.270Z,28.80
2018-04-07T14:28:54.702Z,28.80
2018-04-07T14:31:22.916Z,29.30
2018-04-07T14:33:50.376Z,29.30
2018-04-07T14:36:17.827Z,31.40
2018-04-07T14:38:45.283Z,31.70
2018-04-07T14:41:12.737Z,31.00
2018-04-07T14:43:40.208Z,31.50
2018-04-07T14:46:07.656Z,32.40
2018-04-07T14:48:35.115Z,31.50
2018-04-07T14:51:02.561Z,31.60
2018-04-07T14:53:29.979Z,32.60
2018-04-07T14:55:58.197Z,33.00
2018-04-07T14:58:25.636Z,33.00
2018-04-07T15:00:53.084Z,32.30
2018-04-07T15:03:20.543Z,32.90
2018-04-07T15:05:48.760Z,31.60
2018-04-07T15:08:16.219Z,31.60
2018-04-07T15:10:43.679Z,30.40
2018-04-07T15:13:11.140Z,29.50
2018-04-07T15:15:38.595Z,31.20
2018-04-07T15:18:06.804Z,32.60
2018-04-07T15:20:35.038Z,33.60
2018-04-07T15:23:02.480Z,33.50
2018-04-07T15:25:29.937Z,33.60
2018-04-07T15:27:57.379Z,33.60
2018-04-07T15:30:24.839Z,33.00
2018-04-07T15:32:52.279Z,34.60
2018-04-07T15:35:19.748Z,33.70
2018-04-07T15:37:47.202Z,33.20
2018-04-07T15:40:14.646Z,34.80
2018-04-07T15:42:42.103Z,35.10
2018-04-07T15:45:10.313Z,35.40
2018-04-07T15:47:37.783Z,35.40
2018-04-07T15:50:05.554Z,34.80
2018-04-07T15:52:32.998Z,35.00
2018-04-07T15:55:00.448Z,34.70
2018-04-07T15:57:28.716Z,36.10
2018-04-07T15:59:56.163Z,36.00
2018-04-07T16:02:23.605Z,35.10
2018-04-07T16:04:51.815Z,36.40
2018-04-07T16:07:19.271Z,36.40
2018-04-07T16:09:46.724Z,34.70
2018-04-07T16:12:14.159Z,34.90
2018-04-07T16:14:41.619Z,35.20
2018-04-07T16:17:09.064Z,35.40
2018-04-07T16:19:37.267Z,35.20
2018-04-07T16:22:04.727Z,35.20
2018-04-07T16:24:32.163Z,34.60
2018-04-07T16:26:59.603Z,36.30
2018-04-07T16:29:27.823Z,36.60
2018-04-07T16:31:55.263Z,36.50
2018-04-07T16:34:22.723Z,36.80
2018-04-07T16:36:50.163Z,37.80
2018-04-07T16:39:17.637Z,37.60
2018-04-07T16:41:45.080Z,36.90
2018-04-07T16:44:12.533Z,35.80
2018-04-07T16:46:39.976Z,35.80
2018-04-07T16:49:08.183Z,34.40
2018-04-07T16:51:35.640Z,34.40
2018-04-07T16:54:03.087Z,35.40
2018-04-07T16:56:30.520Z,34.90
2018-04-07T16:58:58.732Z,34.80
2018-04-07T17:01:26.184Z,34.70
2018-04-07T17:03:53.629Z,35.30
2018-04-07T17:06:21.583Z,35.10
2018-04-07T17:08:49.795Z,30.50
2018-04-07T17:11:17.235Z,30.50
2018-04-07T17:13:44.696Z,32.00
2018-04-07T17:16:12.136Z,31.90
2018-04-07T17:18:39.578Z,29.60
2018-04-07T17:21:07.778Z,30.00
2018-04-07T17:23:35.226Z,30.00
2018-04-07T17:26:02.684Z,30.00
2018-04-07T17:28:30.138Z,29.70
2018-04-07T17:30:58.338Z,29.80
2018-04-07T17:33:25.788Z,29.80
2018-04-07T17:35:53.222Z,29.50
2018-04-07T17:38:21.447Z,29.70
2018-04-07T17:40:48.880Z,29.70
2018-04-07T17:43:16.385Z,29.30
2018-04-07T17:45:43.768Z,29.00
2018-04-07T17:48:11.983Z,28.90
2018-04-07T17:50:39.423Z,28.80
2018-04-07T17:53:06.870Z,28.80
2018-04-07T17:55:34.311Z,28.70
2018-04-07T17:58:02.518Z,29.40
2018-04-07T18:00:29.959Z,29.40
2018-04-07T18:02:57.408Z,29.70
2018-04-07T18:05:25.607Z,29.90
2018-04-07T18:07:53.061Z,29.80
2018-04-07T18:10:20.491Z,29.80
2018-04-07T18:12:48.699Z,30.10
2018-04-07T18:15:16.139Z,30.10
2018-04-07T18:17:43.581Z,30.50
2018-04-07T18:20:11.800Z,30.80
2018-04-07T18:22:39.236Z,30.80
2018-04-07T18:25:06.699Z,31.40
2018-04-07T18:27:34.119Z,31.70
2018-04-07T18:30:02.336Z,32.60
2018-04-07T18:32:29.772Z,32.60
2018-04-07T18:34:57.219Z,33.00
2018-04-07T18:37:25.418Z,34.00
2018-04-07T18:39:52.867Z,33.90
2018-04-07T18:42:20.311Z,34.70
2018-04-07T18:44:48.515Z,36.40
2018-04-07T18:47:15.955Z,36.30
2018-04-07T18:49:43.403Z,37.10
2018-04-07T18:52:10.835Z,37.40
2018-04-07T18:54:39.047Z,38.00
2018-04-07T18:57:06.487Z,37.90
2018-04-07T18:59:33.927Z,38.30
2018-04-07T19:02:02.868Z,38.10
2018-04-07T19:04:30.315Z,38.10
2018-04-07T19:06:57.751Z,38.20
2018-04-07T19:09:25.204Z,38.40
2018-04-07T19:11:53.411Z,38.50
2018-04-07T19:14:20.864Z,38.50
2018-04-07T19:16:48.299Z,38.40
2018-04-07T19:19:15.746Z,38.40
2018-04-07T19:21:43.193Z,38.20
2018-04-07T19:24:11.403Z,38.30
2018-04-07T19:26:38.851Z,38.20
2018-04-07T19:29:06.299Z,38.70
2018-04-07T19:31:33.736Z,39.30
2018-04-07T19:34:01.947Z,38.90
2018-04-07T19:36:29.387Z,38.90
2018-04-07T19:38:56.840Z,39.10
2018-04-07T19:41:25.095Z,39.10
2018-04-07T19:43:52.490Z,39.10
2018-04-07T19:46:19.911Z,38.70
2018-04-07T19:48:48.123Z,40.40
2018-04-07T19:51:15.559Z,40.30
2018-04-07T19:53:43.012Z,41.00
2018-04-07T19:56:11.213Z,41.70
2018-04-07T19:58:39.262Z,41.60
2018-04-07T20:01:07.467Z,40.00
2018-04-07T20:03:34.927Z,40.00
2018-04-07T20:06:02.361Z,39.50
2018-04-07T20:08:29.811Z,39.80
2018-04-07T20:10:57.248Z,39.50
2018-04-07T20:13:25.460Z,41.00
2018-04-07T20:15:52.909Z,40.40
2018-04-07T20:18:20.358Z,41.30
2018-04-07T20:20:47.813Z,42.00
2018-04-07T20:23:16.025Z,44.50
2018-04-07T20:25:43.499Z,44.40
2018-04-07T20:28:10.931Z,45.00
2018-04-07T20:30:38.392Z,44.20
2018-04-07T20:33:05.834Z,44.10
2018-04-07T20:35:33.289Z,44.30
2018-04-07T20:38:00.735Z,43.50
2018-04-07T20:40:28.192Z,43.00
2018-04-07T20:42:55.638Z,42.70
2018-04-07T20:45:23.859Z,41.70
2018-04-07T20:47:51.303Z,41.70
2018-04-07T20:50:18.766Z,40.80
2018-04-07T20:52:46.260Z,41.20
2018-04-07T20:55:13.695Z,40.70
2018-04-07T20:57:41.139Z,40.80
2018-04-07T21:00:08.583Z,41.70
2018-04-07T21:02:36.026Z,41.20
2018-04-07T21:05:03.783Z,41.40
2018-04-07T21:07:31.223Z,42.20
2018-04-07T21:09:59.439Z,42.70
2018-04-07T21:12:26.874Z,42.70
2018-04-07T21:14:54.316Z,42.90
2018-04-07T21:17:22.532Z,42.90
2018-04-07T21:19:49.991Z,42.90
2018-04-07T21:22:17.426Z,43.50
2018-04-07T21:24:44.876Z,42.50
2018-04-07T21:27:12.307Z,42.90
2018-04-07T21:29:39.762Z,43.00
2018-04-07T21:32:07.206Z,42.80
2018-04-07T21:34:34.655Z,42.90
2018-04-07T21:37:02.092Z,43.40
2018-04-07T21:39:29.546Z,43.50
2018-04-07T21:41:56.980Z,43.60
2018-04-07T21:44:24.422Z,43.90
2018-04-07T21:46:52.637Z,43.00
2018-04-07T21:49:20.087Z,43.00
2018-04-07T21:51:47.515Z,43.20
2018-04-07T21:54:14.971Z,43.40
2018-04-07T21:56:43.183Z,44.00
2018-04-07T21:59:10.631Z,43.90
2018-04-07T22:01:38.078Z,43.50
2018-04-07T22:04:05.524Z,44.00
2018-04-07T22:06:32.959Z,44.10
2018-04-07T22:09:01.179Z,43.70
2018-04-07T22:11:28.624Z,43.70
2018-04-07T22:13:56.092Z,46.50
2018-04-07T22:16:23.572Z,48.40
2018-04-07T22:18:51.033Z,50.60
2018-04-07T22:21:18.577Z,52.80
2018-04-07T22:23:46.033Z,53.30
2018-04-07T22:26:13.500Z,53.20
2018-04-07T22:28:40.944Z,52.70
2018-04-07T22:31:08.424Z,52.30
2018-04-07T22:33:36.648Z,53.50
2018-04-07T22:36:04.136Z,53.60
2018-04-07T22:38:31.586Z,53.00
2018-04-07T22:40:59.056Z,53.10
2018-04-07T22:43:26.507Z,54.00
2018-04-07T22:45:53.983Z,54.90
2018-04-07T22:48:21.440Z,57.30
2018-04-07T22:50:48.903Z,58.70
2018-04-07T22:53:16.380Z,62.10
2018-04-07T22:55:43.850Z,62.00
2018-04-07T22:58:12.096Z,67.00
2018-04-07T23:00:39.566Z,67.00
2018-04-07T23:03:07.032Z,67.20
2018-04-07T23:05:34.507Z,68.80
2018-04-07T23:08:02.741Z,70.90
2018-04-07T23:10:30.211Z,70.90
2018-04-07T23:12:57.689Z,74.60
2018-04-07T23:15:25.935Z,72.10
2018-04-07T23:17:53.408Z,72.10
2018-04-07T23:20:20.885Z,71.40
2018-04-07T23:22:49.117Z,76.60
2018-04-07T23:25:16.591Z,76.40
2018-04-07T23:27:44.057Z,77.60
2018-04-07T23:30:11.536Z,76.80
2018-04-07T23:32:39.777Z,75.40
2018-04-07T23:35:07.263Z,75.30
2018-04-07T23:37:35.508Z,75.60
2018-04-07T23:40:02.996Z,75.60
2018-04-07T23:42:31.217Z,75.30
2018-04-07T23:44:58.695Z,75.30
2018-04-07T23:47:26.160Z,76.00
2018-04-07T23:49:53.632Z,77.50
2018-04-07T23:52:21.096Z,78.30
2018-04-07T23:54:49.335Z,79.30
2018-04-07T23:57:16.796Z,79.20
2018-04-07T23:59:44.275Z,80.50
